Time;durP1;ratioP1;P1;durP2;ratioP2;P2;SDS_P1;SDS_P2;PMS_P1;PMS_P2;Temp;Humidity;BMP_temperature;BMP_pressure;BME280_temperature;BME280_humidity;BME280_pressure;Samples;Min_cycle;Max_cycle;Signal;HPM_P1;HPM_P2
2022/11/28 00:00:59;;;;;;;52.10;22.80;;;;;;;3.12;96.16;100876.84;105920;1292;74036;-75
2022/11/28 00:03:47;;;;;;;57.70;24.90;;;;;;;3.11;96.16;100874.75;105937;1292;67509;-75
2022/11/28 00:06:39;;;;;;;54.40;24.10;;;;;;;3.10;96.30;100874.09;105898;1292;73643;-74
2022/11/28 00:09:26;;;;;;;54.90;24.00;;;;;;;3.10;96.30;100876.05;105909;1292;58687;-75
2022/11/28 00:12:14;;;;;;;52.00;22.70;;;;;;;3.08;96.39;100876.09;105751;1292;61166;-75
2022/11/28 00:15:04;;;;;;;43.90;21.00;;;;;;;3.09;96.43;100876.77;105906;1291;72617;-75
2022/11/28 00:17:51;;;;;;;42.00;20.40;;;;;;;3.10;96.57;100875.85;105925;1286;68832;-76
2022/11/28 00:20:39;;;;;;;41.20;18.90;;;;;;;3.11;96.69;100875.30;105905;1294;73729;-75
2022/11/28 00:23:27;;;;;;;39.50;17.70;;;;;;;3.12;96.32;100873.17;105911;1291;57990;-75
2022/11/28 00:26:20;;;;;;;44.10;19.70;;;;;;;3.12;96.29;100868.63;105937;1291;58961;-76
2022/11/28 00:29:09;;;;;;;44.40;19.80;;;;;;;3.13;96.39;100869.45;105757;1301;73723;-75
2022/11/28 00:31:58;;;;;;;41.50;19.80;;;;;;;3.14;96.25;100871.71;105913;1289;66082;-76
2022/11/28 00:34:46;;;;;;;42.40;20.40;;;;;;;3.16;96.39;100871.44;105895;1284;72647;-76
2022/11/28 00:37:34;;;;;;;43.80;20.00;;;;;;;3.18;96.09;100874.72;105898;1292;58101;-76
2022/11/28 00:40:22;;;;;;;41.20;20.40;;;;;;;3.21;96.09;100870.43;105911;1285;58701;-74
2022/11/28 00:43:11;;;;;;;40.00;19.50;;;;;;;3.23;96.24;100871.38;105794;1295;73542;-75
2022/11/28 00:46:06;;;;;;;42.60;19.60;;;;;;;3.25;95.91;100871.67;105932;1293;67646;-77
2022/11/28 00:48:54;;;;;;;39.60;18.50;;;;;;;3.26;96.15;100871.63;105904;1291;71218;-77
2022/11/28 00:51:42;;;;;;;40.90;19.10;;;;;;;3.29;95.58;100869.10;105895;1299;58973;-76
2022/11/28 00:54:30;;;;;;;43.20;20.80;;;;;;;3.29;95.44;100869.08;105934;1291;59036;-76
2022/11/28 00:57:18;;;;;;;42.80;19.50;;;;;;;3.30;95.19;100867.83;105918;1298;75046;-76
2022/11/28 01:00:07;;;;;;;38.10;15.10;;;;;;;3.32;95.58;100864.59;105789;1297;67679;-75
2022/11/28 01:02:54;;;;;;;37.30;18.20;;;;;;;3.35;95.31;100864.14;105837;1293;73699;-75
2022/11/28 01:05:42;;;;;;;37.90;17.80;;;;;;;3.39;95.16;100867.31;105928;1299;58062;-75
2022/11/28 01:08:30;;;;;;;39.50;18.10;;;;;;;3.40;95.20;100863.58;105909;1291;61355;-76
2022/11/28 01:11:19;;;;;;;35.60;16.20;;;;;;;3.44;95.10;100861.21;105898;1291;74651;-77
2022/11/28 01:14:08;;;;;;;39.60;18.00;;;;;;;3.39;94.28;100855.23;105796;1294;67823;-76
2022/11/28 01:16:55;;;;;;;34.60;15.70;;;;;;;3.34;94.62;100850.86;105898;1299;72385;-75
2022/11/28 01:19:42;;;;;;;31.60;15.90;;;;;;;3.32;94.35;100844.06;105767;1301;59984;-75
2022/11/28 01:22:30;;;;;;;30.10;14.60;;;;;;;3.30;93.81;100840.80;105821;1300;58637;-76
2022/11/28 01:25:18;;;;;;;27.90;13.10;;;;;;;3.30;94.09;100841.16;105951;1292;74902;-76
2022/11/28 01:28:05;;;;;;;31.70;15.40;;;;;;;3.29;93.85;100836.81;105919;1292;67653;-76
2022/11/28 01:30:53;;;;;;;31.80;13.70;;;;;;;3.29;93.98;100834.54;105922;1291;74011;-76
2022/11/28 01:33:42;;;;;;;31.50;14.70;;;;;;;3.27;93.88;100828.10;105786;1292;57984;-76
2022/11/28 01:36:29;;;;;;;30.10;14.40;;;;;;;3.28;93.74;100821.95;105951;1292;61342;-75
2022/11/28 01:39:17;;;;;;;26.30;12.50;;;;;;;3.23;93.28;100827.20;105908;1291;73713;-76
2022/11/28 01:42:05;;;;;;;28.60;12.30;;;;;;;3.20;93.00;100823.46;105915;1292;67952;-77
2022/11/28 01:44:52;;;;;;;30.10;14.30;;;;;;;3.15;93.07;100822.73;105898;1290;72462;-76
2022/11/28 01:47:40;;;;;;;30.20;13.20;;;;;;;3.14;93.04;100822.61;105906;1292;58449;-76
2022/11/28 01:50:30;;;;;;;30.80;13.90;;;;;;;3.12;93.26;100823.36;105743;1284;60638;-75
2022/11/28 01:53:19;;;;;;;34.80;14.80;;;;;;;3.12;93.42;100823.55;105913;1284;73759;-75
2022/11/28 01:56:27;;;;;;;25.70;12.40;;;;;;;3.10;93.48;100821.15;105942;1292;67755;-76
2022/11/28 01:59:15;;;;;;;28.10;12.50;;;;;;;3.06;93.54;100819.90;105812;1296;72649;-76
2022/11/28 02:02:14;;;;;;;33.50;15.70;;;;;;;3.01;93.57;100817.95;105934;1293;57958;-75
2022/11/28 02:05:03;;;;;;;33.60;14.60;;;;;;;2.95;93.37;100822.02;105944;1292;61358;-75
2022/11/28 02:07:51;;;;;;;33.20;15.60;;;;;;;2.89;93.72;100819.05;105853;1294;73575;-75
2022/11/28 02:11:29;;;;;;;33.40;15.40;;;;;;;2.83;93.94;100811.89;105818;1292;68994;-74
2022/11/28 02:14:41;;;;;;;34.20;15.90;;;;;;;2.79;94.22;100805.38;105896;1299;73460;-78
2022/11/28 02:17:44;;;;;;;37.40;15.90;;;;;;;2.79;94.51;100802.92;105795;1294;58045;-74
2022/11/28 02:20:59;;;;;;;34.50;14.90;;;;;;;2.74;94.24;100801.34;105905;1291;61196;-75
2022/11/28 02:24:11;;;;;;;35.90;15.60;;;;;;;2.64;94.70;100801.33;105924;1292;74696;-75
2022/11/28 02:27:26;;;;;;;37.10;17.10;;;;;;;2.52;94.58;100795.38;105836;1295;69091;-75
2022/11/28 02:30:43;;;;;;;35.50;16.00;;;;;;;2.46;94.89;100794.72;105785;1292;72930;-76
2022/11/28 02:33:34;;;;;;;34.60;16.60;;;;;;;2.38;95.08;100796.00;105833;1291;58007;-77
2022/11/28 02:36:34;;;;;;;36.00;14.60;;;;;;;2.34;95.53;100795.09;105777;1292;60107;-75
2022/11/28 02:39:36;;;;;;;31.30;14.70;;;;;;;2.33;95.73;100794.61;105735;1294;74760;-75
2022/11/28 02:42:42;;;;;;;35.60;15.30;;;;;;;2.30;95.78;100792.94;105768;1294;68939;-75
2022/11/28 02:46:10;;;;;;;34.90;15.00;;;;;;;2.28;95.79;100795.45;105762;1295;73738;-76
2022/11/28 02:49:06;;;;;;;36.40;16.30;;;;;;;2.20;95.77;100790.99;105691;1294;58041;-75
2022/11/28 02:52:05;;;;;;;34.20;14.90;;;;;;;2.15;96.05;100796.05;105769;1294;61488;-75
2022/11/28 02:54:54;;;;;;;32.20;13.90;;;;;;;2.10;96.14;100789.73;105669;1295;72272;-75
2022/11/28 02:57:50;;;;;;;35.70;16.40;;;;;;;2.00;96.29;100790.88;105709;1295;68857;-75
2022/11/28 03:00:43;;;;;;;35.50;14.80;;;;;;;1.95;96.57;100791.58;105659;1298;73683;-75
2022/11/28 03:03:51;;;;;;;39.60;17.50;;;;;;;1.89;96.83;100794.20;105692;1301;58500;-75
2022/11/28 03:07:08;;;;;;;37.70;15.70;;;;;;;1.87;97.10;100789.02;105739;1295;59973;-75
2022/11/28 03:10:14;;;;;;;33.90;15.10;;;;;;;1.84;97.42;100789.09;105766;1288;75047;-75
2022/11/28 03:13:18;;;;;;;29.60;14.00;;;;;;;1.77;97.70;100790.54;105805;1293;66211;-75
2022/11/28 03:16:49;;;;;;;28.30;12.30;;;;;;;1.67;98.06;100786.96;105722;1295;71218;-74
2022/11/28 03:19:50;;;;;;;26.90;11.90;;;;;;;1.61;98.26;100785.40;105784;1295;57978;-75
2022/11/28 03:23:14;;;;;;;29.20;12.90;;;;;;;1.55;98.79;100787.70;105735;1295;60078;-76
2022/11/28 03:26:39;;;;;;;30.10;12.30;;;;;;;1.49;98.90;100784.87;105773;1295;73407;-74
2022/11/28 03:29:58;;;;;;;26.40;11.30;;;;;;;1.46;98.91;100784.27;105773;1293;68941;-75
2022/11/28 03:32:50;;;;;;;29.10;13.30;;;;;;;1.42;99.40;100783.15;105790;1288;70189;-76
2022/11/28 03:35:47;;;;;;;28.30;12.00;;;;;;;1.41;99.55;100780.89;105686;1288;58543;-75
2022/11/28 03:38:45;;;;;;;30.90;12.80;;;;;;;1.41;99.70;100778.80;105805;1288;61481;-74
2022/11/28 03:42:07;;;;;;;26.50;11.20;;;;;;;1.38;99.99;100777.49;105799;1292;73861;-74
2022/11/28 03:45:10;;;;;;;26.80;11.20;;;;;;;1.32;100.00;100779.23;105908;1292;66466;-74
2022/11/28 03:48:17;;;;;;;27.40;11.60;;;;;;;1.27;100.00;100779.35;105813;1292;71549;-75
2022/11/28 03:51:35;;;;;;;30.50;12.90;;;;;;;1.24;100.00;100783.64;105701;1295;58016;-76
2022/11/28 03:54:44;;;;;;;26.80;11.70;;;;;;;1.22;100.00;100777.77;105850;1290;60122;-75
2022/11/28 03:58:06;;;;;;;23.20;10.20;;;;;;;1.19;100.00;100781.85;105922;1284;73544;-77
2022/11/28 04:01:26;;;;;;;23.00;9.30;;;;;;;1.13;100.00;100782.73;105314;1299;67968;-76
2022/11/28 04:04:35;;;;;;;24.20;9.60;;;;;;;1.07;100.00;100785.86;105272;1301;72579;-75
2022/11/28 04:07:41;;;;;;;26.50;11.70;;;;;;;1.01;100.00;100786.34;105160;1301;58166;-76
2022/11/28 04:10:55;;;;;;;25.30;11.50;;;;;;;0.97;100.00;100786.98;105364;1285;59096;-76
2022/11/28 04:13:56;;;;;;;26.00;12.00;;;;;;;0.95;100.00;100792.63;105257;1301;74878;-76
2022/11/28 04:16:52;;;;;;;29.50;12.00;;;;;;;0.95;100.00;100790.73;105220;1307;67769;-75
2022/11/28 04:19:48;;;;;;;24.70;10.50;;;;;;;0.94;100.00;100789.68;105390;1302;72365;-75
2022/11/28 04:22:54;;;;;;;22.00;9.50;;;;;;;0.94;100.00;100789.15;105349;1301;58079;-74
2022/11/28 04:25:57;;;;;;;26.60;10.70;;;;;;;0.90;100.00;100788.38;105261;1301;60058;-75
2022/11/28 04:28:48;;;;;;;23.20;10.70;;;;;;;0.89;100.00;100790.15;105239;1299;72671;-76
2022/11/28 04:31:39;;;;;;;24.30;10.50;;;;;;;0.90;100.00;100784.71;105244;1301;66978;-74
2022/11/28 04:34:29;;;;;;;24.60;10.40;;;;;;;0.91;100.00;100786.28;105245;1303;72862;-75
2022/11/28 04:37:19;;;;;;;22.40;9.20;;;;;;;0.87;100.00;100787.41;105428;1300;58446;-74
2022/11/28 04:40:10;;;;;;;25.70;10.90;;;;;;;0.82;100.00;100785.98;105816;1288;59397;-76
2022/11/28 04:43:04;;;;;;;21.30;10.20;;;;;;;0.80;100.00;100789.88;105757;1299;75116;-74
2022/11/28 04:45:58;;;;;;;22.90;9.70;;;;;;;0.74;100.00;100796.83;105817;1295;68920;-75
2022/11/28 04:48:46;;;;;;;23.70;10.20;;;;;;;0.70;100.00;100799.39;105798;1290;72461;-74
2022/11/28 04:51:58;;;;;;;25.10;10.00;;;;;;;0.67;100.00;100802.05;105913;1292;59800;-74
2022/11/28 04:54:58;;;;;;;21.80;8.60;;;;;;;0.66;100.00;100798.05;105813;1288;60548;-75
2022/11/28 04:57:54;;;;;;;23.40;9.60;;;;;;;0.69;100.00;100797.30;105903;1292;74664;-76
2022/11/28 05:00:45;;;;;;;23.30;9.70;;;;;;;0.71;100.00;100796.40;105826;1284;65320;-74
2022/11/28 05:03:33;;;;;;;26.20;10.80;;;;;;;0.70;100.00;100795.20;105820;1295;72379;-75
2022/11/28 05:06:33;;;;;;;16.10;6.70;;;;;;;0.73;100.00;100803.50;105802;1295;57990;-75
2022/11/28 05:09:21;;;;;;;25.10;10.90;;;;;;;0.74;100.00;100800.67;105880;1292;60070;-75
2022/11/28 05:12:09;;;;;;;25.20;10.70;;;;;;;0.77;100.00;100800.10;105905;1292;74713;-75
2022/11/28 05:14:57;;;;;;;17.70;7.80;;;;;;;0.75;100.00;100793.85;105938;1286;66934;-76
2022/11/28 05:17:45;;;;;;;19.80;8.60;;;;;;;0.69;100.00;100793.29;105840;1286;73709;-77
2022/11/28 05:20:34;;;;;;;17.10;6.40;;;;;;;0.66;100.00;100788.81;105900;1292;57971;-77
2022/11/28 05:23:21;;;;;;;22.50;10.00;;;;;;;0.59;100.00;100788.14;105884;1284;60239;-76
2022/11/28 05:26:13;;;;;;;18.80;7.70;;;;;;;0.59;100.00;100792.13;105889;1292;71835;-75
2022/11/28 05:29:01;;;;;;;21.10;9.40;;;;;;;0.56;100.00;100788.55;105775;1288;68746;-76
2022/11/28 05:31:49;;;;;;;20.90;9.00;;;;;;;0.56;100.00;100787.49;105869;1285;74113;-74
2022/11/28 05:34:37;;;;;;;20.00;8.50;;;;;;;0.57;100.00;100784.16;105898;1291;58501;-77
2022/11/28 05:37:24;;;;;;;22.20;8.70;;;;;;;0.58;100.00;100781.70;105772;1295;61527;-77
2022/11/28 05:40:12;;;;;;;24.90;11.40;;;;;;;0.61;100.00;100785.81;105881;1285;72926;-75
2022/11/28 05:43:00;;;;;;;21.60;8.70;;;;;;;0.64;100.00;100784.50;105901;1292;69473;-74
2022/11/28 05:45:47;;;;;;;21.60;9.20;;;;;;;0.61;100.00;100786.84;105891;1284;71677;-75
2022/11/28 05:48:35;;;;;;;19.40;8.30;;;;;;;0.58;100.00;100786.92;105642;1299;180246;-74
2022/11/28 05:51:23;;;;;;;20.80;8.60;;;;;;;0.56;100.00;100789.25;105852;1292;60180;-77
2022/11/28 05:54:11;;;;;;;20.40;9.00;;;;;;;0.54;100.00;100787.20;105883;1293;72412;-76
2022/11/28 05:56:58;;;;;;;23.40;9.90;;;;;;;0.56;100.00;100788.02;105870;1290;67533;-77
2022/11/28 05:59:46;;;;;;;21.90;8.10;;;;;;;0.59;100.00;100787.78;105783;1292;72899;-77
2022/11/28 06:02:35;;;;;;;20.80;8.60;;;;;;;0.60;100.00;100785.12;105902;1292;58062;-77
2022/11/28 06:05:24;;;;;;;21.20;9.40;;;;;;;0.60;100.00;100779.89;105909;1275;58695;-77
2022/11/28 06:08:29;;;;;;;20.40;8.50;;;;;;;0.62;100.00;100779.85;105876;1291;72589;-76
2022/11/28 06:11:19;;;;;;;21.30;9.30;;;;;;;0.60;100.00;100773.41;105711;1287;68904;-78
2022/11/28 06:14:07;;;;;;;23.30;9.10;;;;;;;0.59;100.00;100769.98;105835;1298;73541;-75
2022/11/28 06:16:54;;;;;;;19.80;9.00;;;;;;;0.54;100.00;100775.16;105855;1284;57966;-77
2022/11/28 06:19:42;;;;;;;22.70;8.60;;;;;;;0.49;100.00;100768.29;105859;1292;60442;-77
2022/11/28 06:22:30;;;;;;;24.50;9.50;;;;;;;0.45;100.00;100770.31;105862;1292;72369;-75
2022/11/28 06:25:18;;;;;;;20.00;8.70;;;;;;;0.45;100.00;100767.19;105869;1284;65975;-79
2022/11/28 06:28:05;;;;;;;22.30;9.30;;;;;;;0.45;100.00;100770.30;105764;1295;71121;-76
2022/11/28 06:30:53;;;;;;;25.50;10.80;;;;;;;0.47;100.00;100767.30;105888;1292;58483;-75
2022/11/28 06:33:41;;;;;;;22.70;9.10;;;;;;;0.49;100.00;100771.97;105891;1285;61133;-76
2022/11/28 06:36:29;;;;;;;23.70;10.00;;;;;;;0.49;100.00;100764.09;105883;1285;74601;-77
2022/11/28 06:39:17;;;;;;;24.40;10.10;;;;;;;0.53;100.00;100761.05;105870;1285;67660;-75
2022/11/28 06:42:05;;;;;;;28.40;11.90;;;;;;;0.56;100.00;100766.37;105895;1292;71489;-77
2022/11/28 06:44:53;;;;;;;25.80;10.80;;;;;;;0.58;100.00;100768.23;105880;1291;59615;-76
2022/11/28 06:47:40;;;;;;;27.20;10.80;;;;;;;0.63;100.00;100760.94;105793;1292;60282;-77
2022/11/28 06:50:28;;;;;;;27.80;11.50;;;;;;;0.66;100.00;100757.89;105766;1294;72521;-76
2022/11/28 06:53:17;;;;;;;30.20;12.20;;;;;;;0.69;100.00;100761.66;105784;1291;67733;-77
2022/11/28 06:56:08;;;;;;;27.10;11.30;;;;;;;0.72;100.00;100765.09;105901;1292;72297;-76
2022/11/28 06:58:58;;;;;;;31.10;13.70;;;;;;;0.77;100.00;100763.73;105867;1293;59591;-77
2022/11/28 07:01:46;;;;;;;30.90;12.80;;;;;;;0.85;100.00;100768.25;104944;1292;1002469;-76
2022/11/28 07:04:34;;;;;;;30.80;12.40;;;;;;;0.88;100.00;100766.24;105583;1292;75015;-77
2022/11/28 07:07:22;;;;;;;24.80;9.80;;;;;;;0.88;100.00;100767.48;105913;1284;65291;-78
2022/11/28 07:10:10;;;;;;;25.00;10.40;;;;;;;0.88;100.00;100772.02;105782;1288;72629;-78
2022/11/28 07:13:00;;;;;;;23.00;10.70;;;;;;;0.87;100.00;100771.02;105751;1287;58446;-77
2022/11/28 07:15:51;;;;;;;22.10;9.60;;;;;;;0.84;100.00;100769.50;105869;1291;61382;-75
2022/11/28 07:18:39;;;;;;;23.30;9.70;;;;;;;0.85;100.00;100767.04;105870;1292;74940;-77
2022/11/28 07:21:27;;;;;;;24.90;10.90;;;;;;;0.82;100.00;100766.92;105776;1292;66366;-76
2022/11/28 07:24:18;;;;;;;21.10;9.20;;;;;;;0.80;100.00;100768.03;105777;1292;71233;-78
2022/11/28 07:27:06;;;;;;;20.50;8.40;;;;;;;0.76;100.00;100765.34;105919;1292;58804;-77
2022/11/28 07:29:53;;;;;;;21.70;9.30;;;;;;;0.71;100.00;100760.23;105889;1292;58623;-76
2022/11/28 07:32:41;;;;;;;23.00;9.10;;;;;;;0.71;100.00;100764.79;105950;1286;73640;-78
2022/11/28 07:35:32;;;;;;;23.20;9.40;;;;;;;0.70;100.00;100761.81;105921;1284;66598;-76
2022/11/28 07:38:20;;;;;;;21.20;9.30;;;;;;;0.70;100.00;100763.92;105883;1291;73720;-77
2022/11/28 07:41:12;;;;;;;20.90;8.50;;;;;;;0.65;100.00;100766.14;105908;1286;57982;-77
2022/11/28 07:44:02;;;;;;;25.80;10.30;;;;;;;0.64;100.00;100771.60;105917;1284;58221;-76
2022/11/28 07:46:49;;;;;;;20.70;7.70;;;;;;;0.65;100.00;100768.41;105768;1292;75043;-77
2022/11/28 07:49:37;;;;;;;18.20;7.90;;;;;;;0.63;100.00;100765.85;105873;1292;65730;-75
2022/11/28 07:52:25;;;;;;;20.30;8.60;;;;;;;0.61;100.00;100773.95;105744;1287;74063;-74
2022/11/28 07:55:13;;;;;;;22.90;9.30;;;;;;;0.62;100.00;100772.00;105905;1290;58082;-75
2022/11/28 07:58:02;;;;;;;17.90;7.40;;;;;;;0.63;100.00;100768.13;105916;1285;60328;-73
2022/11/28 08:00:50;;;;;;;21.20;8.70;;;;;;;0.63;100.00;100760.09;105788;1295;72717;-77
2022/11/28 08:03:38;;;;;;;21.40;9.10;;;;;;;0.65;100.00;100761.94;105919;1292;66576;-75
2022/11/28 08:06:29;;;;;;;21.60;9.40;;;;;;;0.64;100.00;100755.85;105887;1285;72562;-78
2022/11/28 08:09:18;;;;;;;24.80;10.10;;;;;;;0.65;100.00;100759.50;105887;1291;59825;-76
2022/11/28 08:12:06;;;;;;;23.20;9.30;;;;;;;0.70;100.00;100760.95;105886;1284;58122;-79
2022/11/28 08:14:53;;;;;;;26.40;11.80;;;;;;;0.69;100.00;100760.98;105922;1283;73561;-76
2022/11/28 08:17:41;;;;;;;25.10;11.20;;;;;;;0.74;100.00;100761.38;105891;1284;68904;-77
2022/11/28 08:20:29;;;;;;;25.80;10.50;;;;;;;0.78;100.00;100759.02;105791;1291;72580;-76
2022/11/28 08:23:17;;;;;;;17.30;6.70;;;;;;;0.79;100.00;100756.70;105857;1292;59842;-76
2022/11/28 08:26:09;;;;;;;22.30;10.00;;;;;;;0.75;100.00;100758.56;105179;1284;1002640;-77
2022/11/28 08:28:58;;;;;;;25.40;11.10;;;;;;;0.73;100.00;100759.48;105891;1292;74890;-78
2022/11/28 08:31:46;;;;;;;22.20;9.50;;;;;;;0.72;100.00;100757.05;105886;1285;68713;-78
2022/11/28 08:34:33;;;;;;;24.50;9.30;;;;;;;0.70;100.00;100754.14;105884;1284;72049;-76
2022/11/28 08:37:21;;;;;;;23.20;10.30;;;;;;;0.70;100.00;100753.27;105725;1293;59606;-77
2022/11/28 08:40:09;;;;;;;23.40;10.10;;;;;;;0.77;100.00;100757.29;105894;1286;58121;-77
2022/11/28 08:42:58;;;;;;;25.00;10.30;;;;;;;0.84;100.00;100757.63;105860;1284;73590;-76
2022/11/28 08:45:47;;;;;;;22.40;10.30;;;;;;;0.92;100.00;100756.36;105881;1292;67581;-75
2022/11/28 08:48:36;;;;;;;21.60;10.20;;;;;;;0.97;100.00;100758.86;105719;1285;72593;-76
2022/11/28 08:51:23;;;;;;;21.40;9.00;;;;;;;0.98;100.00;100752.52;105850;1292;58105;-77
2022/11/28 08:54:11;;;;;;;19.30;9.00;;;;;;;0.99;100.00;100751.96;105896;1285;61287;-75
2022/11/28 08:57:00;;;;;;;20.20;8.30;;;;;;;1.05;100.00;100758.11;105769;1293;73819;-77
2022/11/28 08:59:48;;;;;;;18.80;8.20;;;;;;;1.07;100.00;100757.02;105878;1292;65298;-77
2022/11/28 09:02:35;;;;;;;22.50;9.60;;;;;;;1.09;100.00;100757.83;105752;1286;71355;-81
2022/11/28 09:05:23;;;;;;;21.70;10.10;;;;;;;1.13;100.00;100754.23;105869;1284;57912;-75
2022/11/28 09:08:15;;;;;;;23.40;10.20;;;;;;;1.19;100.00;100748.13;105773;1284;60273;-75
2022/11/28 09:11:08;;;;;;;24.90;10.60;;;;;;;1.27;100.00;100748.23;105844;1292;74692;-75
2022/11/28 09:13:56;;;;;;;27.30;11.30;;;;;;;1.35;100.00;100754.64;105910;1291;68023;-77
2022/11/28 09:16:44;;;;;;;22.60;10.20;;;;;;;1.46;100.00;100753.66;105927;1285;73679;-77
2022/11/28 09:19:31;;;;;;;24.00;9.90;;;;;;;1.54;100.00;100746.59;105886;1285;58223;-76
2022/11/28 09:22:19;;;;;;;20.80;9.30;;;;;;;1.62;100.00;100745.15;105878;1292;61141;-76
2022/11/28 09:25:07;;;;;;;24.90;11.00;;;;;;;1.64;100.00;100744.73;105866;1292;74677;-75
2022/11/28 09:27:55;;;;;;;22.80;10.50;;;;;;;1.74;100.00;100747.42;105874;1292;67973;-76
2022/11/28 09:30:43;;;;;;;22.50;10.10;;;;;;;1.80;99.33;100747.92;105878;1291;71101;-76
2022/11/28 09:33:32;;;;;;;19.60;9.00;;;;;;;1.79;98.44;100742.37;105879;1292;58025;-76
2022/11/28 09:36:22;;;;;;;20.70;9.50;;;;;;;1.78;97.45;100745.02;105877;1292;60061;-76
2022/11/28 09:39:10;;;;;;;19.70;8.30;;;;;;;1.73;97.24;100742.02;105877;1291;74026;-76
2022/11/28 09:42:29;;;;;;;20.60;9.40;;;;;;;1.68;96.98;100741.27;105881;1284;68979;-76
2022/11/28 09:45:21;;;;;;;19.40;8.60;;;;;;;1.69;97.62;100736.72;105872;1292;72559;-75
2022/11/28 09:48:44;;;;;;;19.60;8.60;;;;;;;1.64;97.26;100739.66;105848;1291;58232;-77
2022/11/28 09:51:44;;;;;;;19.70;8.40;;;;;;;1.54;97.06;100733.30;105814;1295;58656;-76
2022/11/28 09:54:51;;;;;;;19.70;9.30;;;;;;;1.48;97.10;100730.33;105790;1292;73817;-76
2022/11/28 09:57:49;;;;;;;19.70;9.50;;;;;;;1.45;97.23;100728.52;105873;1292;69063;-76
2022/11/28 10:00:58;;;;;;;21.80;9.70;;;;;;;1.42;97.45;100728.40;105698;1287;71787;-76
2022/11/28 10:04:35;;;;;;;22.50;9.80;;;;;;;1.45;98.57;100727.27;105024;1290;1003052;-78
2022/11/28 10:08:08;;;;;;;18.70;7.50;;;;;;;1.56;99.24;100728.88;105783;1294;60063;-75
2022/11/28 10:11:37;;;;;;;22.10;10.30;;;;;;;1.66;98.77;100728.20;105882;1284;73316;-76
2022/11/28 10:14:50;;;;;;;25.00;10.70;;;;;;;1.74;98.13;100723.10;105897;1288;66253;-75
2022/11/28 10:18:17;;;;;;;22.90;9.50;;;;;;;1.84;98.44;100724.36;105792;1292;72747;-76
2022/11/28 10:21:33;;;;;;;17.70;8.30;;;;;;;1.87;97.37;100723.72;105863;1292;57962;-76
2022/11/28 10:24:34;;;;;;;19.10;9.00;;;;;;;1.78;96.58;100717.02;105913;1292;61636;-77
2022/11/28 10:27:31;;;;;;;21.10;9.30;;;;;;;1.77;97.20;100716.52;105800;1286;73807;-76
2022/11/28 10:30:37;;;;;;;19.30;8.10;;;;;;;1.80;96.65;100716.44;105783;1285;65610;-77
2022/11/28 10:33:36;;;;;;;18.60;8.50;;;;;;;1.79;96.47;100712.60;105787;1292;72588;-77
2022/11/28 10:36:45;;;;;;;20.00;9.80;;;;;;;1.82;96.39;100712.67;105842;1292;58052;-77
2022/11/28 10:39:38;;;;;;;20.60;9.20;;;;;;;1.83;96.83;100710.20;105857;1291;60012;-77
2022/11/28 10:43:05;;;;;;;18.30;8.20;;;;;;;1.87;97.13;100708.69;105918;1284;73600;-79
2022/11/28 10:46:11;;;;;;;20.40;9.40;;;;;;;1.91;97.12;100711.89;105213;1301;68924;-75
2022/11/28 10:48:59;;;;;;;22.00;9.30;;;;;;;1.96;96.75;100709.45;105221;1308;72462;-76
2022/11/28 10:52:14;;;;;;;24.80;11.00;;;;;;;1.98;96.72;100705.89;105217;1306;58462;-77
2022/11/28 10:55:23;;;;;;;22.50;9.50;;;;;;;1.98;96.26;100713.42;105220;1300;61480;-77
2022/11/28 10:58:26;;;;;;;26.50;11.20;;;;;;;1.91;96.25;100710.66;105219;1293;73812;-78
2022/11/28 11:01:14;;;;;;;24.70;11.70;;;;;;;1.88;96.02;100710.41;105144;1303;68941;-76
2022/11/28 11:04:11;;;;;;;23.70;10.50;;;;;;;1.81;95.82;100713.77;105121;1299;72654;-76
2022/11/28 11:07:26;;;;;;;24.20;10.30;;;;;;;1.75;96.01;100709.06;105093;1301;59633;-77
2022/11/28 11:10:43;;;;;;;22.70;10.20;;;;;;;1.65;96.32;100704.30;105137;1302;60397;-77
2022/11/28 11:13:54;;;;;;;24.50;10.80;;;;;;;1.60;96.52;100703.21;105030;1294;73804;-76
2022/11/28 11:16:54;;;;;;;31.60;12.80;;;;;;;1.59;96.97;100701.84;105173;1295;67566;-75
2022/11/28 11:19:42;;;;;;;25.10;11.40;;;;;;;1.62;97.14;100704.91;104489;1293;1002217;-77
2022/11/28 11:22:31;;;;;;;30.50;13.10;;;;;;;1.63;97.51;100709.77;105524;1295;58520;-76
2022/11/28 11:25:21;;;;;;;26.20;12.20;;;;;;;1.64;97.50;100710.27;105909;1286;59108;-76
2022/11/28 11:28:39;;;;;;;26.20;11.20;;;;;;;1.66;97.68;100708.63;105778;1296;73499;-75
2022/11/28 11:31:31;;;;;;;26.90;11.40;;;;;;;1.68;97.73;100709.77;105787;1292;67759;-78
2022/11/28 11:34:22;;;;;;;25.70;11.30;;;;;;;1.75;98.07;100711.50;105795;1296;71080;-77
2022/11/28 11:37:32;;;;;;;26.40;12.20;;;;;;;1.80;97.52;100715.56;105867;1292;58032;-76
2022/11/28 11:40:28;;;;;;;26.90;11.90;;;;;;;1.79;97.04;100714.00;105899;1284;59005;-76
2022/11/28 11:43:32;;;;;;;26.20;12.00;;;;;;;1.74;96.54;100712.23;105787;1291;73683;-75
2022/11/28 11:46:20;;;;;;;30.80;12.10;;;;;;;1.69;96.46;100711.15;105716;1295;68879;-75
2022/11/28 11:49:27;;;;;;;25.00;11.30;;;;;;;1.70;96.85;100712.54;104419;1298;1002533;-76
2022/11/28 11:52:22;;;;;;;28.90;12.80;;;;;;;1.71;96.93;100714.26;105741;1293;58005;-77
2022/11/28 11:55:16;;;;;;;27.30;12.20;;;;;;;1.74;97.24;100711.92;105781;1293;59012;-76
2022/11/28 11:58:08;;;;;;;26.60;10.80;;;;;;;1.79;97.50;100709.81;105902;1290;72549;-76
2022/11/28 12:00:58;;;;;;;28.60;11.90;;;;;;;1.82;97.20;100710.78;105900;1291;67768;-76
2022/11/28 12:04:02;;;;;;;31.40;13.80;;;;;;;1.83;97.43;100708.46;105882;1292;73763;-76
2022/11/28 12:07:51;;;;;;;36.60;13.80;;;;;;;1.82;96.72;100714.42;105747;1293;58016;-77
2022/11/28 12:10:58;;;;;;;31.90;13.10;;;;;;;1.78;96.55;100711.77;105904;1291;58096;-77
2022/11/28 12:13:47;;;;;;;30.50;12.40;;;;;;;1.76;96.56;100709.54;105818;1291;75279;-76
2022/11/28 12:16:41;;;;;;;29.40;11.70;;;;;;;1.73;96.26;100706.69;105885;1291;68845;-75
2022/11/28 12:19:35;;;;;;;26.20;11.10;;;;;;;1.66;96.34;100708.80;105894;1292;72822;-76
2022/11/28 12:22:42;;;;;;;27.90;11.90;;;;;;;1.60;96.43;100700.93;105852;1292;58088;-78
2022/11/28 12:25:48;;;;;;;26.10;12.10;;;;;;;1.60;96.92;100698.13;105869;1293;61123;-77
2022/11/28 12:29:11;;;;;;;24.30;10.30;;;;;;;1.61;96.70;100699.17;105869;1293;74843;-76
2022/11/28 12:32:35;;;;;;;27.70;11.20;;;;;;;1.56;96.61;100691.61;105809;1294;65465;-77
2022/11/28 12:35:39;;;;;;;27.00;11.30;;;;;;;1.55;97.19;100683.25;105887;1292;70953;-77
2022/11/28 12:39:30;;;;;;;29.70;12.20;;;;;;;1.55;97.16;100683.77;105753;1300;58494;-77
2022/11/28 12:42:37;;;;;;;30.40;13.00;;;;;;;1.58;97.43;100681.08;105195;1301;61154;-77
2022/11/28 12:45:40;;;;;;;30.40;12.30;;;;;;;1.62;97.45;100679.02;105231;1300;72392;-77
2022/11/28 12:48:53;;;;;;;30.50;13.30;;;;;;;1.67;97.43;100678.17;105212;1300;67605;-77
2022/11/28 12:52:11;;;;;;;31.00;12.50;;;;;;;1.72;97.42;100681.52;105156;1290;73786;-77
2022/11/28 12:55:29;;;;;;;30.10;13.70;;;;;;;1.76;97.68;100676.46;105187;1300;58241;-76
2022/11/28 12:58:34;;;;;;;28.10;12.00;;;;;;;1.80;97.10;100680.38;105065;1304;60092;-76
2022/11/28 13:01:52;;;;;;;30.70;13.20;;;;;;;1.81;97.27;100675.27;105117;1303;72532;-75
2022/11/28 13:05:09;;;;;;;25.00;10.70;;;;;;;1.81;96.93;100674.94;105191;1300;67730;-77
2022/11/28 13:08:18;;;;;;;26.90;12.10;;;;;;;1.79;96.57;100677.96;105186;1301;71025;-78
2022/11/28 13:11:23;;;;;;;27.90;11.70;;;;;;;1.77;96.77;100671.20;105209;1302;58468;-76
2022/11/28 13:14:28;;;;;;;28.30;12.50;;;;;;;1.80;96.58;100672.69;105865;1293;60137;-75
2022/11/28 13:17:22;;;;;;;30.60;12.60;;;;;;;1.72;96.10;100668.56;105891;1291;73625;-78
2022/11/28 13:20:37;;;;;;;27.20;12.50;;;;;;;1.66;96.66;100663.30;105901;1292;69306;-73